Time;durP1;ratioP1;P1;durP2;ratioP2;P2;SDS_P1;SDS_P2;PMS_P1;PMS_P2;Temp;Humidity;BMP_temperature;BMP_pressure;BME280_temperature;BME280_humidity;BME280_pressure;Samples;Min_cycle;Max_cycle;Signal;HPM_P1;HPM_P2
2022/05/11 00:00:00;;;;;;;;;;;;;;;;;;350113;28;907;-75
2022/05/11 00:00:13;;;;;;;;;;;;;;;;;;350105;28;916;-75
2022/05/11 00:00:24;;;;;;;;;;;;;;;;;;350141;28;908;-75
2022/05/11 00:00:35;;;;;;;;;;;;;;;;;;350173;28;818;-75
2022/05/11 00:00:45;;;;;;;;;;;;;;;;;;350202;28;821;-75
2022/05/11 00:00:56;;;;;;;;;;;;;;;;;;350094;28;937;-75
2022/05/11 00:01:14;;;;;;;;;;;;;;;;;;350084;28;892;-75
2022/05/11 00:01:29;;;;;;;;;;;;;;;;;;348777;28;881;-75
2022/05/11 00:01:39;;;;;;;;;;;;;;;;;;348721;28;921;-75
2022/05/11 00:01:49;;;;;;;;;;;;;;;;;;348770;28;813;-75
2022/05/11 00:02:00;;;;;;;;;;;;;;;;;;348668;28;974;-76
2022/05/11 00:02:10;;;;;;;;;;;;;;;;;;348711;28;920;-75
2022/05/11 00:02:21;;;;;;;;;;;;;;;;;;349867;28;1517;-75
2022/05/11 00:02:32;;;;;;;;;;;;;;;;;;349274;28;1946;-75
2022/05/11 00:02:42;;;;;;;;;;;;;;;;;;350684;28;1706;-75
2022/05/11 00:02:52;;;;;;;;;;;;;;;;;;351487;28;901;-75
2022/05/11 00:03:04;;;;;;;;;;;;;;;;;;351566;28;904;-76
2022/05/11 00:03:15;;;;;;;;;;;;;;;;;;350112;28;1749;-74
2022/05/11 00:03:25;;;;;;;;;;;;;;;;;;350156;28;990;-76
2022/05/11 00:03:36;;;;;;;;;;;;;;;;;;350105;28;896;-75
2022/05/11 00:03:46;;;;;;;;;;;;;;;;;;350120;28;927;-75
2022/05/11 00:03:57;;;;;;;;;;;;;;;;;;350073;28;932;-75
2022/05/11 00:04:07;;;;;;;;;;;;;;;;;;350146;28;960;-75
2022/05/11 00:04:18;;;;;;;;;;;;;;;;;;350048;28;912;-75
2022/05/11 00:04:29;;;;;;;;;;;;;;;;;;350169;28;801;-75
2022/05/11 00:04:39;;;;;;;;;;;;;;;;;;350162;28;1067;-75
2022/05/11 00:04:49;;;;;;;;;;;;;;;;;;350130;28;896;-75
2022/05/11 00:05:00;;;;;;;;;;;;;;;;;;350069;28;908;-75
2022/05/11 00:05:11;;;;;;;;;;;;;;;;;;350150;28;912;-75
2022/05/11 00:05:21;;;;;;;;;;;;;;;;;;350117;28;822;-75
2022/05/11 00:05:32;;;;;;;;;;;;;;;;;;350153;28;934;-75
2022/05/11 00:05:42;;;;;;;;;;;;;;;;;;350126;28;968;-75
2022/05/11 00:05:52;;;;;;;;;;;;;;;;;;350158;28;889;-75
2022/05/11 00:06:03;;;;;;;;;;;;;;;;;;350142;28;924;-75
2022/05/11 00:06:13;;;;;;;;;;;;;;;;;;350128;28;789;-75
2022/05/11 00:06:25;;;;;;;;;;;;;;;;;;350094;28;865;-75
2022/05/11 00:06:36;;;;;;;;;;;;;;;;;;350154;28;943;-75
2022/05/11 00:06:49;;;;;;;;;;;;;;;;;;350167;28;793;-75
2022/05/11 00:06:59;;;;;;;;;;;;;;;;;;350067;28;1901;-75
2022/05/11 00:07:09;;;;;;;;;;;;;;;;;;350079;28;924;-75
2022/05/11 00:07:20;;;;;;;;;;;;;;;;;;350086;28;1008;-75
2022/05/11 00:07:30;;;;;;;;;;;;;;;;;;349686;28;1413;-75
2022/05/11 00:07:40;;;;;;;;;;;;;;;;;;349584;28;1906;-75
2022/05/11 00:07:50;;;;;;;;;;;;;;;;;;350963;28;1847;-75
2022/05/11 00:08:01;;;;;;;;;;;;;;;;;;351479;28;1007;-75
2022/05/11 00:08:11;;;;;;;;;;;;;;;;;;350355;28;967;-75
2022/05/11 00:08:21;;;;;;;;;;;;;;;;;;350066;28;790;-75
2022/05/11 00:08:31;;;;;;;;;;;;;;;;;;350109;28;889;-75
2022/05/11 00:08:43;;;;;;;;;;;;;;;;;;350140;28;916;-75
2022/05/11 00:08:54;;;;;;;;;;;;;;;;;;350109;28;805;-75
2022/05/11 00:09:05;;;;;;;;;;;;;;;;;;350103;28;975;-75
2022/05/11 00:09:15;;;;;;;;;;;;;;;;;;350200;28;856;-75
2022/05/11 00:09:25;;;;;;;;;;;;;;;;;;350108;28;876;-75
2022/05/11 00:09:36;;;;;;;;;;;;;;;;;;350117;28;937;-75
2022/05/11 00:09:46;;;;;;;;;;;;;;;;;;350198;28;897;-75
2022/05/11 00:09:56;;;;;;;;;;;;;;;;;;350111;28;987;-75
2022/05/11 00:10:11;;;;;;;;;;;;;;;;;;350132;28;968;-75
2022/05/11 00:10:21;;;;;;;;;;;;;;;;;;350117;28;888;-75
2022/05/11 00:10:32;;;;;;;;;;;;;;;;;;350031;28;1386;-75
2022/05/11 00:10:42;;;;;;;;;;;;;;;;;;350140;28;877;-75
2022/05/11 00:10:53;;;;;;;;;;;;;;;;;;350147;28;1003;-75
2022/05/11 00:11:04;;;;;;;;;;;;;;;;;;350076;28;908;-75
2022/05/11 00:11:15;;;;;;;;;;;;;;;;;;350185;28;797;-75
2022/05/11 00:11:27;;;;;;;;;;;;;;;;;;350178;28;932;-75
2022/05/11 00:11:38;;;;;;;;;;;;;;;;;;350092;28;928;-75
2022/05/11 00:11:48;;;;;;;;;;;;;;;;;;349065;28;1950;-75
2022/05/11 00:11:58;;;;;;;;;;;;;;;;;;350500;28;1515;-75
2022/05/11 00:12:09;;;;;;;;;;;;;;;;;;351465;28;936;-75
2022/05/11 00:12:19;;;;;;;;;;;;;;;;;;351040;28;904;-75
2022/05/11 00:12:29;;;;;;;;;;;;;;;;;;350110;28;919;-76
2022/05/11 00:12:44;;;;;;;;;;;;;;;;;;349456;28;1950;-75
2022/05/11 00:12:54;;;;;;;;;;;;;;;;;;349584;28;1670;-75
2022/05/11 00:13:04;;;;;;;;;;;;;;;;;;351341;28;1154;-75
2022/05/11 00:13:15;;;;;;;;;;;;;;;;;;350788;28;936;-75
2022/05/11 00:13:25;;;;;;;;;;;;;;;;;;350093;28;972;-75
2022/05/11 00:13:35;;;;;;;;;;;;;;;;;;349978;28;1023;-75
2022/05/11 00:13:45;;;;;;;;;;;;;;;;;;350079;28;908;-75
2022/05/11 00:13:57;;;;;;;;;;;;;;;;;;349991;28;1278;-75
2022/05/11 00:14:08;;;;;;;;;;;;;;;;;;350123;28;968;-75
2022/05/11 00:14:18;;;;;;;;;;;;;;;;;;350085;28;986;-75
2022/05/11 00:14:28;;;;;;;;;;;;;;;;;;350141;28;893;-75
2022/05/11 00:14:39;;;;;;;;;;;;;;;;;;350043;28;971;-75
2022/05/11 00:14:49;;;;;;;;;;;;;;;;;;350123;28;800;-75
2022/05/11 00:14:59;;;;;;;;;;;;;;;;;;350133;28;837;-75
2022/05/11 00:15:10;;;;;;;;;;;;;;;;;;350094;28;988;-75
2022/05/11 00:15:22;;;;;;;;;;;;;;;;;;350106;28;896;-75
2022/05/11 00:15:32;;;;;;;;;;;;;;;;;;350208;28;844;-75
2022/05/11 00:15:42;;;;;;;;;;;;;;;;;;350156;28;920;-75
2022/05/11 00:15:53;;;;;;;;;;;;;;;;;;350102;28;919;-75
2022/05/11 00:16:03;;;;;;;;;;;;;;;;;;350121;28;841;-75
2022/05/11 00:16:13;;;;;;;;;;;;;;;;;;350138;28;821;-75
2022/05/11 00:16:24;;;;;;;;;;;;;;;;;;350102;28;918;-75
2022/05/11 00:16:35;;;;;;;;;;;;;;;;;;350152;28;856;-75
2022/05/11 00:16:45;;;;;;;;;;;;;;;;;;350066;28;964;-75
2022/05/11 00:16:59;;;;;;;;;;;;;;;;;;350144;28;888;-75
2022/05/11 00:17:09;;;;;;;;;;;;;;;;;;350108;28;936;-75
2022/05/11 00:17:19;;;;;;;;;;;;;;;;;;350116;28;936;-75
2022/05/11 00:17:30;;;;;;;;;;;;;;;;;;350111;28;920;-75
2022/05/11 00:17:40;;;;;;;;;;;;;;;;;;350141;28;900;-75
2022/05/11 00:17:50;;;;;;;;;;;;;;;;;;349235;28;1986;-75
2022/05/11 00:18:01;;;;;;;;;;;;;;;;;;350567;28;1693;-75
2022/05/11 00:18:11;;;;;;;;;;;;;;;;;;351462;28;955;-75
2022/05/11 00:18:22;;;;;;;;;;;;;;;;;;349966;28;1646;-75
2022/05/11 00:18:32;;;;;;;;;;;;;;;;;;350046;28;1484;-75
2022/05/11 00:18:42;;;;;;;;;;;;;;;;;;351498;28;845;-75
2022/05/11 00:18:53;;;;;;;;;;;;;;;;;;351476;28;1071;-75
2022/05/11 00:19:03;;;;;;;;;;;;;;;;;;350267;28;967;-75
2022/05/11 00:19:13;;;;;;;;;;;;;;;;;;350115;28;986;-75
2022/05/11 00:19:24;;;;;;;;;;;;;;;;;;350109;28;990;-75
2022/05/11 00:19:36;;;;;;;;;;;;;;;;;;350017;28;945;-75
2022/05/11 00:19:46;;;;;;;;;;;;;;;;;;350147;28;920;-75
2022/05/11 00:19:56;;;;;;;;;;;;;;;;;;350137;28;845;-75
2022/05/11 00:20:07;;;;;;;;;;;;;;;;;;350146;28;967;-75
2022/05/11 00:20:18;;;;;;;;;;;;;;;;;;350055;28;912;-75
2022/05/11 00:20:28;;;;;;;;;;;;;;;;;;350134;28;845;-75
2022/05/11 00:20:38;;;;;;;;;;;;;;;;;;350124;28;964;-75
2022/05/11 00:20:49;;;;;;;;;;;;;;;;;;350125;28;755;-75
2022/05/11 00:20:59;;;;;;;;;;;;;;;;;;350032;28;905;-75
2022/05/11 00:21:09;;;;;;;;;;;;;;;;;;350157;28;778;-75
2022/05/11 00:21:20;;;;;;;;;;;;;;;;;;349930;28;1594;-75
2022/05/11 00:21:30;;;;;;;;;;;;;;;;;;350054;28;1492;-75
2022/05/11 00:21:40;;;;;;;;;;;;;;;;;;350077;28;929;-75
2022/05/11 00:21:51;;;;;;;;;;;;;;;;;;350096;28;979;-75
2022/05/11 00:22:01;;;;;;;;;;;;;;;;;;350128;28;941;-75
2022/05/11 00:22:11;;;;;;;;;;;;;;;;;;350077;28;1008;-75
2022/05/11 00:22:21;;;;;;;;;;;;;;;;;;350042;28;935;-76
2022/05/11 00:22:32;;;;;;;;;;;;;;;;;;350111;28;929;-75
2022/05/11 00:22:42;;;;;;;;;;;;;;;;;;350113;28;972;-75
2022/05/11 00:22:54;;;;;;;;;;;;;;;;;;349370;28;1839;-75
2022/05/11 00:23:04;;;;;;;;;;;;;;;;;;350080;28;1616;-75
2022/05/11 00:23:15;;;;;;;;;;;;;;;;;;351559;28;777;-75
2022/05/11 00:23:25;;;;;;;;;;;;;;;;;;351112;28;979;-75
2022/05/11 00:23:35;;;;;;;;;;;;;;;;;;350060;28;964;-75
2022/05/11 00:23:46;;;;;;;;;;;;;;;;;;350109;28;959;-75
2022/05/11 00:23:56;;;;;;;;;;;;;;;;;;350145;28;864;-75
2022/05/11 00:24:06;;;;;;;;;;;;;;;;;;350123;28;943;-76
2022/05/11 00:24:17;;;;;;;;;;;;;;;;;;350086;28;779;-75
2022/05/11 00:24:27;;;;;;;;;;;;;;;;;;350087;28;912;-75
2022/05/11 00:24:37;;;;;;;;;;;;;;;;;;350074;28;999;-75
2022/05/11 00:24:47;;;;;;;;;;;;;;;;;;350118;28;924;-75
2022/05/11 00:24:58;;;;;;;;;;;;;;;;;;350073;28;786;-76
2022/05/11 00:25:08;;;;;;;;;;;;;;;;;;350075;28;912;-76
2022/05/11 00:25:19;;;;;;;;;;;;;;;;;;350143;28;924;-75
2022/05/11 00:25:30;;;;;;;;;;;;;;;;;;350114;28;916;-75
2022/05/11 00:25:40;;;;;;;;;;;;;;;;;;350085;28;909;-75
2022/05/11 00:25:50;;;;;;;;;;;;;;;;;;350128;28;799;-75
2022/05/11 00:26:01;;;;;;;;;;;;;;;;;;350105;28;920;-76
2022/05/11 00:26:11;;;;;;;;;;;;;;;;;;350104;28;976;-75
2022/05/11 00:26:21;;;;;;;;;;;;;;;;;;350093;28;913;-75
2022/05/11 00:26:31;;;;;;;;;;;;;;;;;;350142;28;897;-75
2022/05/11 00:26:42;;;;;;;;;;;;;;;;;;350035;28;969;-75
2022/05/11 00:26:52;;;;;;;;;;;;;;;;;;350118;28;967;-75
2022/05/11 00:27:02;;;;;;;;;;;;;;;;;;350045;28;1910;-75
2022/05/11 00:27:13;;;;;;;;;;;;;;;;;;350043;28;959;-75
2022/05/11 00:27:23;;;;;;;;;;;;;;;;;;350123;28;946;-75
2022/05/11 00:27:33;;;;;;;;;;;;;;;;;;350125;28;905;-75
2022/05/11 00:27:44;;;;;;;;;;;;;;;;;;350083;28;921;-75
2022/05/11 00:27:55;;;;;;;;;;;;;;;;;;350106;28;932;-75
2022/05/11 00:28:05;;;;;;;;;;;;;;;;;;349274;28;1954;-75
2022/05/11 00:28:16;;;;;;;;;;;;;;;;;;350840;28;1701;-76
2022/05/11 00:28:26;;;;;;;;;;;;;;;;;;350661;28;914;-75
2022/05/11 00:28:36;;;;;;;;;;;;;;;;;;350100;28;893;-75
2022/05/11 00:28:46;;;;;;;;;;;;;;;;;;350083;28;992;-75
2022/05/11 00:28:57;;;;;;;;;;;;;;;;;;350127;28;940;-75
2022/05/11 00:29:07;;;;;;;;;;;;;;;;;;350098;28;897;-76
2022/05/11 00:29:17;;;;;;;;;;;;;;;;;;350107;28;877;-75
2022/05/11 00:29:28;;;;;;;;;;;;;;;;;;350069;28;984;-76
2022/05/11 00:29:38;;;;;;;;;;;;;;;;;;350180;28;853;-76
2022/05/11 00:29:48;;;;;;;;;;;;;;;;;;350049;28;983;-76
2022/05/11 00:29:59;;;;;;;;;;;;;;;;;;350099;28;1007;-75
2022/05/11 00:30:09;;;;;;;;;;;;;;;;;;349045;28;1845;-75
2022/05/11 00:30:20;;;;;;;;;;;;;;;;;;351047;28;1697;-75
2022/05/11 00:30:30;;;;;;;;;;;;;;;;;;351473;28;907;-75
2022/05/11 00:30:41;;;;;;;;;;;;;;;;;;348781;28;798;-75
2022/05/11 00:30:51;;;;;;;;;;;;;;;;;;348800;28;870;-75
2022/05/11 00:31:02;;;;;;;;;;;;;;;;;;348583;28;986;-75
2022/05/11 00:31:12;;;;;;;;;;;;;;;;;;348310;28;1907;-75
2022/05/11 00:31:23;;;;;;;;;;;;;;;;;;349312;28;1485;-75
2022/05/11 00:31:33;;;;;;;;;;;;;;;;;;351094;28;1693;-75
2022/05/11 00:31:43;;;;;;;;;;;;;;;;;;351520;28;986;-76
2022/05/11 00:31:54;;;;;;;;;;;;;;;;;;350003;28;1007;-75
2022/05/11 00:32:04;;;;;;;;;;;;;;;;;;350141;28;968;-75
2022/05/11 00:32:15;;;;;;;;;;;;;;;;;;350124;28;936;-76
2022/05/11 00:32:25;;;;;;;;;;;;;;;;;;350130;28;957;-76
2022/05/11 00:32:35;;;;;;;;;;;;;;;;;;350055;28;1023;-75
2022/05/11 00:32:46;;;;;;;;;;;;;;;;;;350086;28;960;-75
2022/05/11 00:32:57;;;;;;;;;;;;;;;;;;350135;28;983;-76
2022/05/11 00:33:10;;;;;;;;;;;;;;;;;;349122;28;1923;-76
2022/05/11 00:33:21;;;;;;;;;;;;;;;;;;349570;28;1674;-76
2022/05/11 00:33:31;;;;;;;;;;;;;;;;;;351497;28;869;-75
2022/05/11 00:33:41;;;;;;;;;;;;;;;;;;350728;28;908;-75
2022/05/11 00:33:52;;;;;;;;;;;;;;;;;;350110;28;1011;-76
2022/05/11 00:34:02;;;;;;;;;;;;;;;;;;350143;28;912;-76
2022/05/11 00:34:12;;;;;;;;;;;;;;;;;;350068;28;972;-75
2022/05/11 00:34:23;;;;;;;;;;;;;;;;;;350140;28;809;-75
2022/05/11 00:34:33;;;;;;;;;;;;;;;;;;350128;28;881;-75
2022/05/11 00:34:43;;;;;;;;;;;;;;;;;;350166;28;790;-76
2022/05/11 00:34:53;;;;;;;;;;;;;;;;;;350096;28;920;-76
2022/05/11 00:35:04;;;;;;;;;;;;;;;;;;350133;28;1023;-75
2022/05/11 00:35:15;;;;;;;;;;;;;;;;;;350107;28;936;-76
2022/05/11 00:35:26;;;;;;;;;;;;;;;;;;350028;28;1131;-75
2022/05/11 00:35:36;;;;;;;;;;;;;;;;;;350106;28;901;-75
2022/05/11 00:35:47;;;;;;;;;;;;;;;;;;349918;28;1022;-75
2022/05/11 00:35:58;;;;;;;;;;;;;;;;;;350099;28;981;-75
2022/05/11 00:36:10;;;;;;;;;;;;;;;;;;350105;28;979;-75
2022/05/11 00:36:21;;;;;;;;;;;;;;;;;;350014;28;1190;-75
2022/05/11 00:36:31;;;;;;;;;;;;;;;;;;350068;28;813;-75
2022/05/11 00:36:41;;;;;;;;;;;;;;;;;;350091;28;972;-76
2022/05/11 00:36:52;;;;;;;;;;;;;;;;;;350106;28;944;-75
2022/05/11 00:37:02;;;;;;;;;;;;;;;;;;350132;28;971;-76
2022/05/11 00:37:12;;;;;;;;;;;;;;;;;;350121;28;803;-75
2022/05/11 00:37:24;;;;;;;;;;;;;;;;;;350068;28;979;-75
2022/05/11 00:37:34;;;;;;;;;;;;;;;;;;350064;28;1161;-76
2022/05/11 00:37:44;;;;;;;;;;;;;;;;;;350159;28;949;-75
2022/05/11 00:37:54;;;;;;;;;;;;;;;;;;350123;28;896;-75
2022/05/11 00:38:05;;;;;;;;;;;;;;;;;;350125;28;932;-75
2022/05/11 00:38:16;;;;;;;;;;;;;;;;;;349109;28;1981;-75
2022/05/11 00:38:27;;;;;;;;;;;;;;;;;;349540;28;1697;-75
2022/05/11 00:38:37;;;;;;;;;;;;;;;;;;350943;28;908;-75
2022/05/11 00:38:47;;;;;;;;;;;;;;;;;;349961;28;1139;-75
2022/05/11 00:38:58;;;;;;;;;;;;;;;;;;350087;28;1031;-75
2022/05/11 00:39:08;;;;;;;;;;;;;;;;;;350039;28;1083;-76
2022/05/11 00:39:18;;;;;;;;;;;;;;;;;;349946;28;1139;-75
2022/05/11 00:39:28;;;;;;;;;;;;;;;;;;350097;28;932;-76
2022/05/11 00:39:38;;;;;;;;;;;;;;;;;;350040;28;796;-75
2022/05/11 00:39:48;;;;;;;;;;;;;;;;;;350121;28;901;-75
2022/05/11 00:39:59;;;;;;;;;;;;;;;;;;349946;28;1180;-75
2022/05/11 00:40:09;;;;;;;;;;;;;;;;;;350136;28;912;-75
2022/05/11 00:40:22;;;;;;;;;;;;;;;;;;350071;28;1314;-75
2022/05/11 00:40:38;;;;;;;;;;;;;;;;;;350070;28;1023;-76
2022/05/11 00:40:51;;;;;;;;;;;;;;;;;;349976;28;1304;-75
2022/05/11 00:41:01;;;;;;;;;;;;;;;;;;350145;28;878;-75
2022/05/11 00:41:11;;;;;;;;;;;;;;;;;;350075;28;1038;-75
2022/05/11 00:41:21;;;;;;;;;;;;;;;;;;350140;28;987;-75
2022/05/11 00:41:32;;;;;;;;;;;;;;;;;;350050;28;814;-75
2022/05/11 00:41:42;;;;;;;;;;;;;;;;;;349984;28;908;-75
2022/05/11 00:41:53;;;;;;;;;;;;;;;;;;350104;28;925;-75
2022/05/11 00:42:04;;;;;;;;;;;;;;;;;;350113;28;928;-75
2022/05/11 00:42:14;;;;;;;;;;;;;;;;;;350050;28;1035;-75
2022/05/11 00:42:24;;;;;;;;;;;;;;;;;;350102;28;814;-75
2022/05/11 00:42:35;;;;;;;;;;;;;;;;;;350034;28;1042;-76
2022/05/11 00:42:45;;;;;;;;;;;;;;;;;;350088;28;896;-75
2022/05/11 00:42:55;;;;;;;;;;;;;;;;;;350124;28;833;-75
2022/05/11 00:43:06;;;;;;;;;;;;;;;;;;350111;28;967;-75
2022/05/11 00:43:30;;;;;;;;;;;;;;;;;;350104;28;964;-76
2022/05/11 00:43:41;;;;;;;;;;;;;;;;;;348667;28;802;-75
2022/05/11 00:43:57;;;;;;;;;;;;;;;;;;350072;28;774;-75
2022/05/11 00:44:09;;;;;;;;;;;;;;;;;;350073;28;939;-75
2022/05/11 00:44:20;;;;;;;;;;;;;;;;;;350035;28;944;-76
2022/05/11 00:44:30;;;;;;;;;;;;;;;;;;350072;28;913;-75
2022/05/11 00:44:41;;;;;;;;;;;;;;;;;;350097;28;1014;-75
2022/05/11 00:44:53;;;;;;;;;;;;;;;;;;350102;28;929;-75
2022/05/11 00:45:04;;;;;;;;;;;;;;;;;;350095;28;1091;-75
2022/05/11 00:45:14;;;;;;;;;;;;;;;;;;350040;28;913;-76
2022/05/11 00:45:25;;;;;;;;;;;;;;;;;;350072;28;1136;-76
2022/05/11 00:45:38;;;;;;;;;;;;;;;;;;350097;28;984;-75
2022/05/11 00:45:50;;;;;;;;;;;;;;;;;;349995;28;858;-75
2022/05/11 00:46:17;;;;;;;;;;;;;;;;;;350099;28;916;-75
2022/05/11 00:46:36;;;;;;;;;;;;;;;;;;350070;28;877;-75
2022/05/11 00:46:58;;;;;;;;;;;;;;;;;;350116;28;916;-75
2022/05/11 00:47:18;;;;;;;;;;;;;;;;;;350025;28;969;-76
2022/05/11 00:47:31;;;;;;;;;;;;;;;;;;350087;28;790;-75
2022/05/11 00:47:44;;;;;;;;;;;;;;;;;;350026;28;920;-75
2022/05/11 00:48:01;;;;;;;;;;;;;;;;;;349971;28;1093;-75
2022/05/11 00:49:50;;;;;;;;;;;;;;;;;;348663;28;1035;-75
2022/05/11 00:50:04;;;;;;;;;;;;;;;;;;348609;28;917;-75
2022/05/11 00:50:17;;;;;;;;;;;;;;;;;;348692;28;1020;-76
2022/05/11 00:50:34;;;;;;;;;;;;;;;;;;348761;28;916;-75
2022/05/11 00:50:44;;;;;;;;;;;;;;;;;;348668;28;921;-75
2022/05/11 00:50:55;;;;;;;;;;;;;;;;;;348698;28;892;-75
2022/05/11 00:51:05;;;;;;;;;;;;;;;;;;348696;28;943;-75
2022/05/11 00:51:15;;;;;;;;;;;;;;;;;;348610;28;1004;-75
2022/05/11 00:51:30;;;;;;;;;;;;;;;;;;349026;28;1531;-76
2022/05/11 00:51:45;;;;;;;;;;;;;;;;;;350005;28;1535;-75
2022/05/11 00:51:58;;;;;;;;;;;;;;;;;;349992;28;1043;-75
2022/05/11 00:52:19;;;;;;;;;;;;;;;;;;350024;28;1012;-75
2022/05/11 00:52:41;;;;;;;;;;;;;;;;;;350021;28;1037;-75
2022/05/11 00:52:56;;;;;;;;;;;;;;;;;;350078;28;987;-75
2022/05/11 00:53:11;;;;;;;;;;;;;;;;;;350092;28;956;-76
2022/05/11 00:53:22;;;;;;;;;;;;;;;;;;349889;28;1441;-75
2022/05/11 00:53:34;;;;;;;;;;;;;;;;;;349193;28;1919;-75
2022/05/11 00:53:47;;;;;;;;;;;;;;;;;;349065;28;1523;-75
2022/05/11 00:53:57;;;;;;;;;;;;;;;;;;351478;28;782;-75
2022/05/11 00:54:08;;;;;;;;;;;;;;;;;;350637;28;935;-75
2022/05/11 00:54:20;;;;;;;;;;;;;;;;;;349979;28;1012;-76
2022/05/11 00:54:33;;;;;;;;;;;;;;;;;;350081;28;989;-76
2022/05/11 00:54:45;;;;;;;;;;;;;;;;;;349946;28;1011;-75
2022/05/11 00:55:00;;;;;;;;;;;;;;;;;;350084;28;876;-75
2022/05/11 00:55:16;;;;;;;;;;;;;;;;;;350074;28;901;-75
2022/05/11 00:55:32;;;;;;;;;;;;;;;;;;348435;28;1492;-75
2022/05/11 00:55:45;;;;;;;;;;;;;;;;;;349929;28;909;-75
2022/05/11 00:55:59;;;;;;;;;;;;;;;;;;349998;28;1361;-76
2022/05/11 00:56:11;;;;;;;;;;;;;;;;;;350080;28;987;-75
2022/05/11 00:56:22;;;;;;;;;;;;;;;;;;350047;28;940;-75
2022/05/11 00:56:34;;;;;;;;;;;;;;;;;;350089;28;806;-75
2022/05/11 00:56:47;;;;;;;;;;;;;;;;;;350058;28;1130;-75
2022/05/11 00:57:01;;;;;;;;;;;;;;;;;;350052;28;841;-75
2022/05/11 00:57:14;;;;;;;;;;;;;;;;;;350109;28;885;-75
2022/05/11 00:57:29;;;;;;;;;;;;;;;;;;350106;28;869;-76
2022/05/11 00:57:44;;;;;;;;;;;;;;;;;;350050;28;921;-75
2022/05/11 00:57:58;;;;;;;;;;;;;;;;;;350075;28;885;-75
2022/05/11 00:58:11;;;;;;;;;;;;;;;;;;350053;28;845;-75
2022/05/11 00:58:21;;;;;;;;;;;;;;;;;;350021;28;816;-75
2022/05/11 00:58:41;;;;;;;;;;;;;;;;;;350064;28;1007;-75
2022/05/11 00:58:55;;;;;;;;;;;;;;;;;;349864;28;1602;-75
2022/05/11 00:59:10;;;;;;;;;;;;;;;;;;350074;28;924;-75
2022/05/11 00:59:23;;;;;;;;;;;;;;;;;;349328;28;834;-75
2022/05/11 00:59:36;;;;;;;;;;;;;;;;;;348721;28;866;-75
2022/05/11 00:59:48;;;;;;;;;;;;;;;;;;348641;28;976;-75
2022/05/11 00:59:59;;;;;;;;;;;;;;;;;;348666;28;995;-75
2022/05/11 01:00:12;;;;;;;;;;;;;;;;;;348684;28;920;-75
2022/05/11 01:00:24;;;;;;;;;;;;;;;;;;348622;28;1198;-75
2022/05/11 01:00:36;;;;;;;;;;;;;;;;;;348637;28;929;-75
2022/05/11 01:00:46;;;;;;;;;;;;;;;;;;348707;28;932;-75
2022/05/11 01:00:57;;;;;;;;;;;;;;;;;;348657;28;997;-75
2022/05/11 01:01:07;;;;;;;;;;;;;;;;;;348660;28;988;-75
2022/05/11 01:01:17;;;;;;;;;;;;;;;;;;348712;28;797;-75
2022/05/11 01:01:28;;;;;;;;;;;;;;;;;;348664;28;941;-75
2022/05/11 01:01:38;;;;;;;;;;;;;;;;;;348698;28;991;-75
2022/05/11 01:01:49;;;;;;;;;;;;;;;;;;348724;28;838;-75
2022/05/11 01:02:04;;;;;;;;;;;;;;;;;;348536;28;1016;-75
2022/05/11 01:02:14;;;;;;;;;;;;;;;;;;348698;28;997;-75
2022/05/11 01:02:25;;;;;;;;;;;;;;;;;;348666;28;887;-75
2022/05/11 01:02:37;;;;;;;;;;;;;;;;;;348710;28;833;-75
2022/05/11 01:02:51;;;;;;;;;;;;;;;;;;348683;28;897;-75
2022/05/11 01:03:03;;;;;;;;;;;;;;;;;;348724;28;886;-75
2022/05/11 01:03:15;;;;;;;;;;;;;;;;;;348595;28;925;-76
2022/05/11 01:03:45;;;;;;;;;;;;;;;;;;348736;28;976;-75
2022/05/11 01:04:02;;;;;;;;;;;;;;;;;;348145;28;1037;-75
2022/05/11 01:04:15;;;;;;;;;;;;;;;;;;349318;28;1657;-75
2022/05/11 01:04:25;;;;;;;;;;;;;;;;;;351457;28;995;-75
2022/05/11 01:04:38;;;;;;;;;;;;;;;;;;350381;28;928;-75
2022/05/11 01:04:49;;;;;;;;;;;;;;;;;;350067;28;1010;-75
2022/05/11 01:05:02;;;;;;;;;;;;;;;;;;350061;28;925;-75
2022/05/11 01:05:12;;;;;;;;;;;;;;;;;;350032;28;893;-76
2022/05/11 01:05:23;;;;;;;;;;;;;;;;;;350098;28;869;-75
2022/05/11 01:05:33;;;;;;;;;;;;;;;;;;350104;28;818;-75
2022/05/11 01:05:44;;;;;;;;;;;;;;;;;;349989;28;1036;-75
2022/05/11 01:05:55;;;;;;;;;;;;;;;;;;350086;28;913;-76
2022/05/11 01:06:06;;;;;;;;;;;;;;;;;;350078;28;925;-75
2022/05/11 01:06:18;;;;;;;;;;;;;;;;;;350001;28;928;-75
2022/05/11 01:06:30;;;;;;;;;;;;;;;;;;350099;28;821;-76
2022/05/11 01:06:41;;;;;;;;;;;;;;;;;;349982;28;979;-75
2022/05/11 01:06:51;;;;;;;;;;;;;;;;;;350060;28;1006;-75
2022/05/11 01:07:01;;;;;;;;;;;;;;;;;;350019;28;1969;-75
2022/05/11 01:07:13;;;;;;;;;;;;;;;;;;350085;28;809;-76
2022/05/11 01:07:23;;;;;;;;;;;;;;;;;;350097;28;916;-75
2022/05/11 01:07:34;;;;;;;;;;;;;;;;;;349900;28;1342;-76
2022/05/11 01:07:44;;;;;;;;;;;;;;;;;;350012;28;997;-75
2022/05/11 01:07:55;;;;;;;;;;;;;;;;;;350073;28;901;-75
2022/05/11 01:08:07;;;;;;;;;;;;;;;;;;350037;28;972;-75
2022/05/11 01:08:18;;;;;;;;;;;;;;;;;;350013;28;905;-75
2022/05/11 01:08:29;;;;;;;;;;;;;;;;;;350049;28;924;-76
2022/05/11 01:08:39;;;;;;;;;;;;;;;;;;350063;28;964;-75
2022/05/11 01:08:50;;;;;;;;;;;;;;;;;;349956;28;1035;-75
2022/05/11 01:09:00;;;;;;;;;;;;;;;;;;349863;28;913;-75
2022/05/11 01:09:12;;;;;;;;;;;;;;;;;;348965;28;1966;-75
2022/05/11 01:09:22;;;;;;;;;;;;;;;;;;350717;28;1764;-75
2022/05/11 01:09:32;;;;;;;;;;;;;;;;;;351473;28;971;-75
2022/05/11 01:09:42;;;;;;;;;;;;;;;;;;350326;28;856;-75
2022/05/11 01:09:53;;;;;;;;;;;;;;;;;;350019;28;905;-75
2022/05/11 01:10:05;;;;;;;;;;;;;;;;;;350034;28;1036;-76
2022/05/11 01:10:15;;;;;;;;;;;;;;;;;;350053;28;972;-75
2022/05/11 01:10:26;;;;;;;;;;;;;;;;;;349993;28;882;-75
2022/05/11 01:10:37;;;;;;;;;;;;;;;;;;350052;28;940;-76
2022/05/11 01:10:48;;;;;;;;;;;;;;;;;;350039;28;909;-75
2022/05/11 01:11:00;;;;;;;;;;;;;;;;;;350036;28;995;-75
2022/05/11 01:11:11;;;;;;;;;;;;;;;;;;350063;28;857;-75
2022/05/11 01:11:21;;;;;;;;;;;;;;;;;;350049;28;850;-76
2022/05/11 01:11:32;;;;;;;;;;;;;;;;;;350015;28;967;-75
2022/05/11 01:11:47;;;;;;;;;;;;;;;;;;350095;28;790;-75
2022/05/11 01:11:59;;;;;;;;;;;;;;;;;;349976;28;1142;-75
2022/05/11 01:12:12;;;;;;;;;;;;;;;;;;350024;28;1004;-75
2022/05/11 01:12:25;;;;;;;;;;;;;;;;;;350030;28;1021;-75
2022/05/11 01:12:38;;;;;;;;;;;;;;;;;;350029;28;913;-75
2022/05/11 01:12:50;;;;;;;;;;;;;;;;;;350062;28;916;-75
2022/05/11 01:13:02;;;;;;;;;;;;;;;;;;349940;28;968;-75
2022/05/11 01:13:14;;;;;;;;;;;;;;;;;;350078;28;975;-75
2022/05/11 01:13:24;;;;;;;;;;;;;;;;;;349985;28;937;-75
2022/05/11 01:13:36;;;;;;;;;;;;;;;;;;350063;28;778;-75
2022/05/11 01:13:47;;;;;;;;;;;;;;;;;;350018;28;972;-75
2022/05/11 01:13:57;;;;;;;;;;;;;;;;;;349925;28;1148;-75
2022/05/11 01:14:09;;;;;;;;;;;;;;;;;;349850;28;1012;-75
2022/05/11 01:14:21;;;;;;;;;;;;;;;;;;349140;28;1997;-75
2022/05/11 01:14:34;;;;;;;;;;;;;;;;;;351053;28;1803;-75
2022/05/11 01:14:45;;;;;;;;;;;;;;;;;;351080;28;924;-75
2022/05/11 01:15:00;;;;;;;;;;;;;;;;;;349981;28;975;-75
2022/05/11 01:15:12;;;;;;;;;;;;;;;;;;350079;28;932;-75
2022/05/11 01:15:24;;;;;;;;;;;;;;;;;;350024;28;975;-75
2022/05/11 01:15:34;;;;;;;;;;;;;;;;;;350038;28;949;-75
2022/05/11 01:15:47;;;;;;;;;;;;;;;;;;350082;28;908;-75
2022/05/11 01:15:58;;;;;;;;;;;;;;;;;;350058;28;960;-75
2022/05/11 01:16:09;;;;;;;;;;;;;;;;;;350035;28;912;-75
2022/05/11 01:16:20;;;;;;;;;;;;;;;;;;350059;28;920;-76
2022/05/11 01:16:30;;;;;;;;;;;;;;;;;;349988;28;925;-76
2022/05/11 01:16:40;;;;;;;;;;;;;;;;;;350079;28;846;-75
2022/05/11 01:16:51;;;;;;;;;;;;;;;;;;350019;28;991;-75
2022/05/11 01:17:01;;;;;;;;;;;;;;;;;;349960;28;1039;-75
2022/05/11 01:17:12;;;;;;;;;;;;;;;;;;350017;28;873;-75
2022/05/11 01:17:24;;;;;;;;;;;;;;;;;;350054;28;1043;-75
2022/05/11 01:17:36;;;;;;;;;;;;;;;;;;350055;28;933;-75
2022/05/11 01:17:46;;;;;;;;;;;;;;;;;;350053;28;857;-75
2022/05/11 01:17:57;;;;;;;;;;;;;;;;;;349980;28;956;-75
2022/05/11 01:18:09;;;;;;;;;;;;;;;;;;350079;28;928;-75
2022/05/11 01:18:20;;;;;;;;;;;;;;;;;;350036;28;971;-75
2022/05/11 01:18:30;;;;;;;;;;;;;;;;;;350016;28;928;-76
2022/05/11 01:18:40;;;;;;;;;;;;;;;;;;349957;28;980;-75
2022/05/11 01:18:51;;;;;;;;;;;;;;;;;;350058;28;806;-76
2022/05/11 01:19:03;;;;;;;;;;;;;;;;;;350066;28;798;-75
2022/05/11 01:19:23;;;;;;;;;;;;;;;;;;349926;28;936;-76
2022/05/11 01:19:36;;;;;;;;;;;;;;;;;;349924;28;1690;-75
2022/05/11 01:19:47;;;;;;;;;;;;;;;;;;350567;28;924;-75
2022/05/11 01:19:57;;;;;;;;;;;;;;;;;;348606;28;916;-75
2022/05/11 01:20:10;;;;;;;;;;;;;;;;;;348674;28;1059;-76
2022/05/11 01:20:21;;;;;;;;;;;;;;;;;;348604;28;1008;-76
2022/05/11 01:20:33;;;;;;;;;;;;;;;;;;348640;28;987;-76
2022/05/11 01:20:44;;;;;;;;;;;;;;;;;;348642;28;884;-75
2022/05/11 01:20:55;;;;;;;;;;;;;;;;;;348723;28;877;-75
2022/05/11 01:21:07;;;;;;;;;;;;;;;;;;348628;28;960;-75
2022/05/11 01:21:17;;;;;;;;;;;;;;;;;;348655;28;995;-76
2022/05/11 01:21:37;;;;;;;;;;;;;;;;;;348926;28;1552;-75
2022/05/11 01:21:52;;;;;;;;;;;;;;;;;;350047;28;987;-75
2022/05/11 01:22:06;;;;;;;;;;;;;;;;;;350031;28;1087;-75
2022/05/11 01:22:25;;;;;;;;;;;;;;;;;;350072;28;936;-75
2022/05/11 01:22:39;;;;;;;;;;;;;;;;;;349965;28;940;-76
2022/05/11 01:23:02;;;;;;;;;;;;;;;;;;349969;28;1445;-75
2022/05/11 01:23:25;;;;;;;;;;;;;;;;;;350048;28;987;-76
2022/05/11 01:23:35;;;;;;;;;;;;;;;;;;349974;28;802;-75
2022/05/11 01:23:52;;;;;;;;;;;;;;;;;;350087;28;829;-75
2022/05/11 01:24:07;;;;;;;;;;;;;;;;;;350025;28;971;-75